createdAt,value
2023-01-29T00:01:11.692Z,0.88
2023-01-29T00:06:09.593Z,0.85
2023-01-29T00:08:38.891Z,0.70
2023-01-29T00:11:09.326Z,0.80
2023-01-29T00:13:37.529Z,0.50
2023-01-29T00:16:06.554Z,0.93
2023-01-29T00:18:38.416Z,0.60
2023-01-29T00:23:47.983Z,0.50
2023-01-29T00:26:34.606Z,0.50
2023-01-29T00:29:03.078Z,0.35
2023-01-29T00:31:31.608Z,0.60
2023-01-29T00:34:18.312Z,0.52
2023-01-29T00:36:46.652Z,0.60
2023-01-29T00:39:46.758Z,0.20
2023-01-29T00:42:34.248Z,0.60
2023-01-29T00:45:21.020Z,0.30
2023-01-29T00:48:07.736Z,0.30
2023-01-29T00:50:36.167Z,0.40
2023-01-29T00:53:04.490Z,0.50
2023-01-29T00:58:36.306Z,0.32
2023-01-29T01:01:42.271Z,0.40
2023-01-29T01:04:28.969Z,0.75
2023-01-29T01:07:15.471Z,0.63
2023-01-29T01:10:02.229Z,0.70
2023-01-29T01:12:31.244Z,0.60
2023-01-29T01:14:59.462Z,0.68
2023-01-29T01:17:27.721Z,0.60
2023-01-29T01:19:55.873Z,0.63
2023-01-29T01:22:42.509Z,0.80
2023-01-29T01:25:10.807Z,0.50
2023-01-29T01:27:41.516Z,0.77
2023-01-29T01:30:12.551Z,0.55
2023-01-29T01:32:41.411Z,0.60
2023-01-29T01:35:11.339Z,0.50
2023-01-29T01:37:58.284Z,0.60
2023-01-29T01:40:27.241Z,0.60
2023-01-29T01:42:58.369Z,0.73
2023-01-29T01:46:03.636Z,0.60
2023-01-29T01:48:32.175Z,0.60
2023-01-29T01:51:19.860Z,0.60
2023-01-29T01:54:12.111Z,0.52
2023-01-29T01:57:11.887Z,0.60
2023-01-29T01:59:41.381Z,0.43
2023-01-29T02:02:47.003Z,0.55
2023-01-29T02:05:33.982Z,0.63
2023-01-29T02:08:21.069Z,0.88
2023-01-29T02:10:50.156Z,0.50
2023-01-29T02:13:19.856Z,0.60
2023-01-29T02:15:49.047Z,0.65
2023-01-29T02:18:19.631Z,0.68
2023-01-29T02:21:09.105Z,0.70
2023-01-29T02:24:13.842Z,0.50
2023-01-29T02:27:08.636Z,0.57
2023-01-29T02:30:06.371Z,0.55
2023-01-29T02:32:58.842Z,0.63
2023-01-29T02:36:17.180Z,0.50
2023-01-29T02:38:56.883Z,0.47
2023-01-29T02:41:27.671Z,0.50
2023-01-29T02:44:20.200Z,0.55
2023-01-29T02:47:36.961Z,0.50
2023-01-29T02:50:21.595Z,1.00
2023-01-29T02:53:02.184Z,0.43
2023-01-29T02:55:39.621Z,0.65
2023-01-29T02:58:49.884Z,0.50
2023-01-29T03:01:23.758Z,0.50
2023-01-29T03:03:55.668Z,0.50
2023-01-29T03:06:37.845Z,0.57
2023-01-29T03:09:23.363Z,0.40
2023-01-29T03:12:00.487Z,0.52
2023-01-29T03:14:54.711Z,0.57
2023-01-29T03:17:28.113Z,0.50
2023-01-29T03:19:56.946Z,0.75
2023-01-29T03:22:27.542Z,0.47
2023-01-29T03:25:54.407Z,0.40
2023-01-29T03:29:01.292Z,0.35
2023-01-29T03:34:58.767Z,0.60
2023-01-29T03:37:35.651Z,0.40
2023-01-29T03:40:26.050Z,0.40
2023-01-29T03:43:10.551Z,0.40
2023-01-29T03:45:57.989Z,0.40
2023-01-29T03:48:36.904Z,0.40
2023-01-29T03:51:18.294Z,0.50
2023-01-29T03:54:16.793Z,0.40
2023-01-29T03:56:56.922Z,0.28
2023-01-29T03:59:40.951Z,0.40
2023-01-29T04:02:35.291Z,0.30
2023-01-29T04:05:17.692Z,0.80
2023-01-29T04:08:05.516Z,0.52
2023-01-29T04:10:36.704Z,0.52
2023-01-29T04:13:11.088Z,0.30
2023-01-29T04:16:00.800Z,0.50
2023-01-29T04:19:01.549Z,0.40
2023-01-29T04:21:38.604Z,0.40
2023-01-29T04:24:08.505Z,0.40
2023-01-29T04:27:07.453Z,0.43
2023-01-29T04:30:02.532Z,0.40
2023-01-29T04:32:57.056Z,0.45
2023-01-29T04:35:46.667Z,0.20
2023-01-29T04:39:11.814Z,0.40
2023-01-29T04:41:55.960Z,0.40
2023-01-29T04:44:42.920Z,0.38
2023-01-29T04:47:32.488Z,0.32
2023-01-29T04:50:15.082Z,0.40
2023-01-29T04:53:05.265Z,0.40
2023-01-29T04:55:45.969Z,0.43
2023-01-29T04:58:46.169Z,0.45
2023-01-29T05:01:19.259Z,0.50
2023-01-29T05:03:52.007Z,0.50
2023-01-29T05:06:21.754Z,0.40
2023-01-29T05:09:10.042Z,0.50
2023-01-29T05:11:38.387Z,0.40
2023-01-29T05:14:10.316Z,0.60
2023-01-29T05:16:46.113Z,0.50
2023-01-29T05:19:16.401Z,0.45
2023-01-29T05:21:47.962Z,0.40
2023-01-29T05:24:19.441Z,0.50
2023-01-29T05:27:08.696Z,0.32
2023-01-29T05:29:37.609Z,0.20
2023-01-29T05:32:06.048Z,0.30
2023-01-29T05:34:34.694Z,0.20
2023-01-29T05:37:03.164Z,0.20
2023-01-29T05:39:31.162Z,0.20
2023-01-29T05:41:59.774Z,0.20
2023-01-29T05:44:27.909Z,0.22
2023-01-29T05:46:55.926Z,0.80
2023-01-29T05:49:24.185Z,0.20
2023-01-29T05:51:52.392Z,0.60
2023-01-29T05:54:20.690Z,0.30
2023-01-29T05:56:48.722Z,0.30
2023-01-29T05:59:17.322Z,0.30
2023-01-29T06:01:45.537Z,0.60
2023-01-29T06:04:13.563Z,0.40
2023-01-29T06:06:41.824Z,0.40
2023-01-29T06:09:11.892Z,0.50
2023-01-29T06:11:58.582Z,0.30
2023-01-29T06:14:26.810Z,0.38
2023-01-29T06:16:54.764Z,0.20
2023-01-29T06:19:23.034Z,0.30
2023-01-29T06:21:51.072Z,0.30
2023-01-29T06:24:19.142Z,0.40
2023-01-29T06:26:47.524Z,0.30
2023-01-29T06:29:15.698Z,0.20
2023-01-29T06:32:02.565Z,0.20
2023-01-29T06:34:30.685Z,0.20
2023-01-29T06:36:58.909Z,0.40
2023-01-29T06:39:27.122Z,0.30
2023-01-29T06:41:55.123Z,0.22
2023-01-29T06:44:23.424Z,0.30
2023-01-29T06:46:51.580Z,0.30
2023-01-29T06:49:19.723Z,0.20
2023-01-29T06:51:47.823Z,0.40
2023-01-29T06:54:15.940Z,0.45
2023-01-29T06:56:43.979Z,0.45
2023-01-29T06:59:30.668Z,0.40
2023-01-29T07:01:59.052Z,0.63
2023-01-29T07:04:27.062Z,0.40
2023-01-29T07:06:55.133Z,0.65
2023-01-29T07:09:23.309Z,0.20
2023-01-29T07:11:51.605Z,0.20
2023-01-29T07:14:19.728Z,0.30
2023-01-29T07:16:47.828Z,0.43
2023-01-29T07:19:16.051Z,0.30
2023-01-29T07:21:44.074Z,0.30
2023-01-29T07:24:12.174Z,0.20
2023-01-29T07:26:40.253Z,0.30
2023-01-29T07:29:08.293Z,0.20
2023-01-29T07:31:36.549Z,0.50
2023-01-29T07:34:04.756Z,0.55
2023-01-29T07:36:32.736Z,0.40
2023-01-29T07:39:00.879Z,0.40
2023-01-29T07:41:28.975Z,0.60
2023-01-29T07:44:00.738Z,0.30
2023-01-29T07:46:28.890Z,0.30
2023-01-29T07:48:58.573Z,0.30
2023-01-29T07:51:27.081Z,0.30
2023-01-29T07:53:55.136Z,0.40
2023-01-29T07:56:23.233Z,0.40
2023-01-29T07:58:51.352Z,0.32
2023-01-29T08:01:19.441Z,0.30
2023-01-29T08:03:48.954Z,0.30
2023-01-29T08:06:19.579Z,0.80
2023-01-29T08:08:47.698Z,0.40
2023-01-29T08:11:15.879Z,0.43
2023-01-29T08:13:44.479Z,0.40
2023-01-29T08:16:12.676Z,0.43
2023-01-29T08:18:44.383Z,0.20
2023-01-29T08:21:13.906Z,0.30
2023-01-29T08:23:42.188Z,0.20
2023-01-29T08:26:10.327Z,0.40
2023-01-29T08:28:39.146Z,0.40
2023-01-29T08:31:17.198Z,0.40
2023-01-29T08:33:45.307Z,0.25
2023-01-29T08:36:13.826Z,0.30
2023-01-29T08:38:42.200Z,0.30
2023-01-29T08:41:10.255Z,0.30
2023-01-29T08:43:39.011Z,0.40
2023-01-29T08:46:08.517Z,0.40
2023-01-29T08:48:36.967Z,0.40
2023-01-29T08:51:05.565Z,0.20
2023-01-29T08:53:33.770Z,0.30
2023-01-29T08:56:02.268Z,0.28
2023-01-29T08:58:30.312Z,0.22
2023-01-29T09:01:09.603Z,0.30
2023-01-29T09:03:41.234Z,0.63
2023-01-29T09:06:11.143Z,0.40
2023-01-29T09:08:39.778Z,0.30
2023-01-29T09:11:08.457Z,0.30
2023-01-29T09:16:22.042Z,0.40
2023-01-29T09:18:50.379Z,1.08
2023-01-29T09:21:18.799Z,0.30
2023-01-29T09:23:46.930Z,0.20
2023-01-29T09:26:15.105Z,0.30
2023-01-29T09:28:43.219Z,0.30
2023-01-29T09:31:11.367Z,0.40
2023-01-29T09:33:39.589Z,0.30
2023-01-29T09:36:08.152Z,0.40
2023-01-29T09:38:36.306Z,0.60
2023-01-29T09:41:41.560Z,0.47
2023-01-29T09:44:46.695Z,0.50
2023-01-29T09:47:17.898Z,0.45
2023-01-29T09:50:03.251Z,0.43
2023-01-29T09:52:40.526Z,0.50
2023-01-29T09:55:28.803Z,0.45
2023-01-29T09:58:00.533Z,0.30
2023-01-29T10:01:03.933Z,0.40
2023-01-29T10:04:13.048Z,0.20
2023-01-29T10:06:48.966Z,0.20
2023-01-29T10:09:36.199Z,0.30
2023-01-29T10:12:13.318Z,0.40
2023-01-29T10:14:55.506Z,0.90
2023-01-29T10:17:41.875Z,0.80
2023-01-29T10:20:51.084Z,0.70
2023-01-29T10:23:34.445Z,0.50
2023-01-29T10:26:03.250Z,0.60
2023-01-29T10:28:36.904Z,0.60
2023-01-29T10:31:12.770Z,0.75
2023-01-29T10:34:04.981Z,0.70
2023-01-29T10:36:43.190Z,0.75
2023-01-29T10:39:22.250Z,0.50
2023-01-29T10:41:55.916Z,0.50
2023-01-29T10:44:45.919Z,0.68
2023-01-29T10:47:32.688Z,0.30
2023-01-29T10:50:07.144Z,0.50
2023-01-29T10:53:24.851Z,0.20
2023-01-29T10:56:23.345Z,0.40
2023-01-29T10:59:36.671Z,0.60
2023-01-29T11:02:16.178Z,0.40
2023-01-29T11:04:45.141Z,0.50
2023-01-29T11:07:16.191Z,0.20
2023-01-29T11:09:58.043Z,0.38
2023-01-29T11:12:30.975Z,0.30
2023-01-29T11:15:04.578Z,0.40
2023-01-29T11:17:32.857Z,0.30
2023-01-29T11:20:00.990Z,0.40
2023-01-29T11:22:30.804Z,0.60
2023-01-29T11:25:25.537Z,0.43
2023-01-29T11:28:01.155Z,0.40
2023-01-29T11:30:40.527Z,0.40
2023-01-29T11:33:24.460Z,0.25
2023-01-29T11:35:57.915Z,0.40
2023-01-29T11:41:22.743Z,0.52
2023-01-29T11:43:50.892Z,0.40
2023-01-29T11:49:14.292Z,0.80
2023-01-29T11:51:56.338Z,0.45
2023-01-29T11:54:30.362Z,0.35
2023-01-29T11:57:33.033Z,0.52
2023-01-29T12:00:15.448Z,0.68
2023-01-29T12:02:47.646Z,0.50
2023-01-29T12:05:21.805Z,0.30
2023-01-29T12:07:57.996Z,0.40
2023-01-29T12:10:44.635Z,0.20
2023-01-29T12:13:16.161Z,0.50
2023-01-29T12:15:44.618Z,0.20
2023-01-29T12:22:04.805Z,0.20
2023-01-29T12:24:42.041Z,0.40
2023-01-29T12:27:21.594Z,0.30
2023-01-29T12:29:55.739Z,0.20
2023-01-29T12:32:46.801Z,0.40
2023-01-29T12:35:35.943Z,0.38
2023-01-29T12:38:08.612Z,0.63
2023-01-29T12:40:45.278Z,0.50
2023-01-29T12:43:33.433Z,0.30
2023-01-29T12:46:02.488Z,0.40
2023-01-29T12:48:51.153Z,0.63
2023-01-29T12:51:37.203Z,0.60
2023-01-29T12:54:14.327Z,0.90
2023-01-29T12:56:56.017Z,0.50
2023-01-29T12:59:43.608Z,0.82
2023-01-29T13:02:36.947Z,0.40
2023-01-29T13:05:13.362Z,0.55
2023-01-29T13:08:06.080Z,0.60
2023-01-29T13:10:41.616Z,0.30
2023-01-29T13:13:28.536Z,0.50
2023-01-29T13:15:57.763Z,0.40
2023-01-29T13:18:42.635Z,0.60
2023-01-29T13:21:21.471Z,0.50
2023-01-29T13:23:56.719Z,0.40
2023-01-29T13:26:47.919Z,0.57
2023-01-29T13:29:28.247Z,0.40
2023-01-29T13:31:59.320Z,0.32
2023-01-29T13:34:33.316Z,0.60
2023-01-29T13:37:03.727Z,0.40
2023-01-29T13:39:33.636Z,0.43
2023-01-29T13:42:04.781Z,0.57
2023-01-29T13:44:55.933Z,1.65
2023-01-29T13:47:37.405Z,0.70
2023-01-29T13:50:07.622Z,0.60
2023-01-29T13:53:00.704Z,0.47
2023-01-29T13:55:33.230Z,0.50
2023-01-29T13:58:05.834Z,0.60
2023-01-29T14:00:33.916Z,0.20
2023-01-29T14:03:02.039Z,0.73
2023-01-29T14:05:30.171Z,0.50
2023-01-29T14:08:02.025Z,0.50
2023-01-29T14:10:32.121Z,0.60
2023-01-29T14:13:12.613Z,0.60
2023-01-29T14:15:40.768Z,0.40
2023-01-29T14:18:08.830Z,0.40
2023-01-29T14:20:50.666Z,0.50
2023-01-29T14:23:44.696Z,0.60
2023-01-29T14:26:29.267Z,0.40
2023-01-29T14:29:08.372Z,0.60
2023-01-29T14:31:44.127Z,0.43
2023-01-29T14:34:21.224Z,0.30
2023-01-29T14:36:55.620Z,0.30
2023-01-29T14:39:33.526Z,0.50
2023-01-29T14:42:05.281Z,0.55
2023-01-29T14:44:45.825Z,0.30
2023-01-29T14:47:36.000Z,0.52
2023-01-29T14:50:32.054Z,0.50
2023-01-29T14:53:18.440Z,0.43
2023-01-29T14:55:58.984Z,0.65
2023-01-29T14:58:38.627Z,0.70
2023-01-29T15:01:35.594Z,0.40
2023-01-29T15:04:33.730Z,0.47
2023-01-29T15:07:37.588Z,0.30
2023-01-29T15:10:23.445Z,0.30
2023-01-29T15:13:01.910Z,0.40
2023-01-29T15:16:05.280Z,0.40
2023-01-29T15:18:43.694Z,0.28
2023-01-29T15:21:17.574Z,0.60
2023-01-29T15:23:49.100Z,0.35
2023-01-29T15:29:04.156Z,0.47
2023-01-29T15:31:34.684Z,0.63
2023-01-29T15:34:06.996Z,0.40
2023-01-29T15:36:53.845Z,0.20
2023-01-29T15:39:24.184Z,0.43
2023-01-29T15:42:11.048Z,0.70
2023-01-29T15:44:57.677Z,1.00
2023-01-29T15:47:31.191Z,0.90
2023-01-29T15:50:00.654Z,0.68
2023-01-29T15:52:35.413Z,0.60
2023-01-29T15:55:06.296Z,0.50
2023-01-29T15:57:37.938Z,0.40
2023-01-29T16:00:11.167Z,0.30
2023-01-29T16:02:43.190Z,0.40
2023-01-29T16:05:19.686Z,0.30
2023-01-29T16:08:07.895Z,0.30
2023-01-29T16:10:36.283Z,0.40
2023-01-29T16:13:04.857Z,0.40
2023-01-29T16:16:00.669Z,0.47
2023-01-29T16:18:39.498Z,0.30
2023-01-29T16:21:34.320Z,0.50
2023-01-29T16:24:12.099Z,1.08
2023-01-29T16:26:49.960Z,0.35
2023-01-29T16:29:22.623Z,0.65
2023-01-29T16:32:00.746Z,0.30
2023-01-29T16:34:57.219Z,0.30
2023-01-29T16:37:36.553Z,0.43
2023-01-29T16:40:27.797Z,0.30
2023-01-29T16:43:19.158Z,0.20
2023-01-29T16:46:15.807Z,0.30
2023-01-29T16:48:43.982Z,0.45
2023-01-29T16:51:29.024Z,0.40
2023-01-29T16:54:18.483Z,0.40
2023-01-29T16:59:39.043Z,0.30
2023-01-29T17:02:25.151Z,0.25
2023-01-29T17:04:56.943Z,0.45
2023-01-29T17:07:25.519Z,0.30
2023-01-29T17:10:00.706Z,0.35
2023-01-29T17:12:31.027Z,0.20
2023-01-29T17:15:24.667Z,0.30
2023-01-29T17:17:52.783Z,0.50
2023-01-29T17:20:21.029Z,0.40
2023-01-29T17:22:49.036Z,0.52
2023-01-29T17:28:04.376Z,0.50
2023-01-29T17:30:35.124Z,0.20
2023-01-29T17:33:13.318Z,0.73
2023-01-29T17:35:42.673Z,0.60
2023-01-29T17:38:25.582Z,0.45
2023-01-29T17:41:07.969Z,0.50
2023-01-29T17:43:36.157Z,0.38
2023-01-29T17:46:04.680Z,0.40
2023-01-29T17:48:32.845Z,0.30
2023-01-29T17:51:04.777Z,0.57
2023-01-29T17:53:44.825Z,0.75
2023-01-29T17:56:17.453Z,0.40
2023-01-29T17:58:45.647Z,1.13
2023-01-29T18:01:13.700Z,0.30
2023-01-29T18:03:41.960Z,0.30
2023-01-29T18:06:10.544Z,0.55
2023-01-29T18:08:40.180Z,0.57
2023-01-29T18:11:11.722Z,0.60
2023-01-29T18:13:42.119Z,0.38
2023-01-29T18:16:10.451Z,0.30
2023-01-29T18:18:39.218Z,0.50
2023-01-29T18:21:08.309Z,0.70
2023-01-29T18:23:36.359Z,0.82
2023-01-29T18:26:04.710Z,0.93
2023-01-29T18:28:33.424Z,1.05
2023-01-29T18:31:02.647Z,1.30
2023-01-29T18:33:31.477Z,0.90
2023-01-29T18:35:59.665Z,0.90
2023-01-29T18:38:27.771Z,1.42
2023-01-29T18:41:03.561Z,1.45
2023-01-29T18:43:31.616Z,1.42
2023-01-29T18:46:00.288Z,1.60
2023-01-29T18:48:28.729Z,1.20
2023-01-29T18:50:57.046Z,1.80
2023-01-29T18:53:25.533Z,1.38
2023-01-29T18:56:05.433Z,1.45
2023-01-29T18:58:36.203Z,1.30
2023-01-29T19:01:09.956Z,1.42
2023-01-29T19:03:39.351Z,1.40
2023-01-29T19:06:10.426Z,1.30
2023-01-29T19:08:56.957Z,1.10
2023-01-29T19:11:25.141Z,1.13
2023-01-29T19:13:53.382Z,1.10
2023-01-29T19:16:21.571Z,1.10
2023-01-29T19:18:49.942Z,1.20
2023-01-29T19:21:18.207Z,1.20
2023-01-29T19:23:46.403Z,1.13
2023-01-29T19:26:14.654Z,0.98
2023-01-29T19:28:43.039Z,1.00
2023-01-29T19:31:11.721Z,1.00
2023-01-29T19:33:40.173Z,1.05
2023-01-29T19:36:09.123Z,1.63
2023-01-29T19:38:38.918Z,1.02
2023-01-29T19:41:07.128Z,1.00
2023-01-29T19:43:35.250Z,1.10
2023-01-29T19:46:03.531Z,0.80
2023-01-29T19:48:50.848Z,1.05
2023-01-29T19:51:19.023Z,0.85
2023-01-29T19:53:47.082Z,1.10
2023-01-29T19:56:17.123Z,1.05
2023-01-29T19:58:45.358Z,0.90
2023-01-29T20:01:20.149Z,1.10
2023-01-29T20:03:49.572Z,1.17
2023-01-29T20:06:20.417Z,1.23
2023-01-29T20:08:48.685Z,1.08
2023-01-29T20:11:19.315Z,1.45
2023-01-29T20:13:49.995Z,1.67
2023-01-29T20:16:19.189Z,1.08
2023-01-29T20:18:47.504Z,1.35
2023-01-29T20:21:17.660Z,1.60
2023-01-29T20:23:46.196Z,1.48
2023-01-29T20:26:16.324Z,1.55
2023-01-29T20:28:47.547Z,1.23
2023-01-29T20:31:16.718Z,1.15
2023-01-29T20:33:44.868Z,0.80
2023-01-29T20:36:14.946Z,1.02
2023-01-29T20:38:43.111Z,1.00
2023-01-29T20:41:14.897Z,1.00
2023-01-29T20:46:12.357Z,0.90
2023-01-29T20:48:42.323Z,0.98
2023-01-29T20:51:15.628Z,0.95
2023-01-29T20:53:46.429Z,0.70
2023-01-29T20:56:36.336Z,0.77
2023-01-29T20:59:11.047Z,0.90
2023-01-29T21:01:39.196Z,0.57
2023-01-29T21:04:07.261Z,0.70
2023-01-29T21:06:35.424Z,0.30
2023-01-29T21:09:03.612Z,0.40
2023-01-29T21:11:33.716Z,0.40
2023-01-29T21:14:02.217Z,0.50
2023-01-29T21:16:30.516Z,0.40
2023-01-29T21:18:59.501Z,0.50
2023-01-29T21:21:28.011Z,0.60
2023-01-29T21:23:56.314Z,0.57
2023-01-29T21:26:24.698Z,0.40
2023-01-29T21:28:52.849Z,0.80
2023-01-29T21:31:29.424Z,0.70
2023-01-29T21:34:23.552Z,0.63
2023-01-29T21:36:51.947Z,0.70
2023-01-29T21:39:21.381Z,0.60
2023-01-29T21:42:09.685Z,0.52
2023-01-29T21:44:38.242Z,0.68
2023-01-29T21:47:15.254Z,0.40
2023-01-29T21:49:44.712Z,0.40
2023-01-29T21:52:13.628Z,0.50
2023-01-29T21:54:43.785Z,0.63
2023-01-29T21:57:30.493Z,0.60
2023-01-29T21:59:59.668Z,0.70
2023-01-29T22:02:31.094Z,0.70
2023-01-29T22:05:18.015Z,0.60
2023-01-29T22:07:48.238Z,0.98
2023-01-29T22:10:18.355Z,0.50
2023-01-29T22:15:32.788Z,0.60
2023-01-29T22:18:00.945Z,0.65
2023-01-29T22:20:30.984Z,0.50
2023-01-29T22:23:00.761Z,0.40
2023-01-29T22:25:47.711Z,0.40
2023-01-29T22:31:05.811Z,0.30
2023-01-29T22:33:53.593Z,0.40
2023-01-29T22:36:40.710Z,0.32
2023-01-29T22:39:09.441Z,0.50
2023-01-29T22:41:37.752Z,0.50
2023-01-29T22:44:05.983Z,0.60
2023-01-29T22:49:20.002Z,0.40
2023-01-29T22:51:48.409Z,0.70
2023-01-29T22:54:35.383Z,0.43
2023-01-29T22:57:03.716Z,0.50
2023-01-29T22:59:32.577Z,0.28
2023-01-29T23:02:00.858Z,0.57
2023-01-29T23:07:51.249Z,0.30
2023-01-29T23:10:19.776Z,0.40
2023-01-29T23:12:48.170Z,0.47
2023-01-29T23:15:16.377Z,0.45
2023-01-29T23:17:45.639Z,0.35
2023-01-29T23:20:14.173Z,0.40
2023-01-29T23:22:42.399Z,0.40
2023-01-29T23:25:10.702Z,0.20
2023-01-29T23:28:16.071Z,0.32
2023-01-29T23:30:45.490Z,0.50
2023-01-29T23:33:32.564Z,0.38
2023-01-29T23:36:00.713Z,0.30
2023-01-29T23:38:47.840Z,0.30
2023-01-29T23:41:16.203Z,0.30
2023-01-29T23:43:44.545Z,0.40
2023-01-29T23:46:12.841Z,0.20
2023-01-29T23:48:41.145Z,0.32
2023-01-29T23:53:54.968Z,0.43
2023-01-29T23:56:41.716Z,0.20
2023-01-29T23:59:29.251Z,0.30
